Terminal Aerodrome Forecast
Issued by NWS Tiyan, Guam

Home | Current Version | Previous Version | Text Only | Print | Product List | Glossary On
Versions: 1 2 3 4 5 6 7 8 9 10 11 12 13 14 15 16 17 18 19 20 21 22 23 24 25 26 27 28 29 30 31
000
FTPQ31 PGUM 251700
TAFPQ
TAF
PGUM 251722Z 2518/2624 17007KT P6SM VCSH SCT012 SCT030 BKN100
      TEMPO 2520/2523 4SM SHRA SCT010 BKN025 OVC050
     FM260000 20012KT P6SM VCSH SCT017 BKN050 BKN120=

USA.gov is the U.S. government's official web portal to all federal, state and local government web resources and services.